sensor_id;sensor_type;location;lat;lon;timestamp;P1;durP1;ratioP1;P2;durP2;ratioP2
52015;SDS011;38032;53.326;6.472;2023-02-21T00:02:19;11.15;;;4.03;;
52015;SDS011;38032;53.326;6.472;2023-02-21T00:05:03;10.82;;;3.72;;
52015;SDS011;38032;53.326;6.472;2023-02-21T00:07:47;12.68;;;4.13;;
52015;SDS011;38032;53.326;6.472;2023-02-21T00:10:32;10.68;;;4.05;;
52015;SDS011;38032;53.326;6.472;2023-02-21T00:13:16;12.10;;;4.10;;
52015;SDS011;38032;53.326;6.472;2023-02-21T00:16:00;9.68;;;4.03;;
52015;SDS011;38032;53.326;6.472;2023-02-21T00:18:44;11.50;;;3.75;;
52015;SDS011;38032;53.326;6.472;2023-02-21T00:21:29;11.60;;;5.05;;
52015;SDS011;38032;53.326;6.472;2023-02-21T00:24:14;9.50;;;3.90;;
52015;SDS011;38032;53.326;6.472;2023-02-21T00:27:01;13.18;;;4.32;;
52015;SDS011;38032;53.326;6.472;2023-02-21T00:29:46;11.05;;;4.28;;
52015;SDS011;38032;53.326;6.472;2023-02-21T00:32:31;14.95;;;4.75;;
52015;SDS011;38032;53.326;6.472;2023-02-21T00:35:16;10.98;;;4.03;;
52015;SDS011;38032;53.326;6.472;2023-02-21T00:38:00;11.95;;;4.40;;
52015;SDS011;38032;53.326;6.472;2023-02-21T00:40:44;13.10;;;4.07;;
52015;SDS011;38032;53.326;6.472;2023-02-21T00:43:29;14.15;;;4.40;;
52015;SDS011;38032;53.326;6.472;2023-02-21T00:46:15;11.35;;;4.60;;
52015;SDS011;38032;53.326;6.472;2023-02-21T00:49:00;11.40;;;3.72;;
52015;SDS011;38032;53.326;6.472;2023-02-21T00:51:45;12.68;;;3.85;;
52015;SDS011;38032;53.326;6.472;2023-02-21T00:54:29;10.63;;;3.88;;
52015;SDS011;38032;53.326;6.472;2023-02-21T00:57:14;9.93;;;3.55;;
52015;SDS011;38032;53.326;6.472;2023-02-21T00:59:58;11.48;;;4.07;;
52015;SDS011;38032;53.326;6.472;2023-02-21T01:02:42;11.57;;;4.30;;
52015;SDS011;38032;53.326;6.472;2023-02-21T01:05:27;8.18;;;3.33;;
52015;SDS011;38032;53.326;6.472;2023-02-21T01:08:11;10.80;;;4.35;;
52015;SDS011;38032;53.326;6.472;2023-02-21T01:13:40;13.98;;;4.90;;
52015;SDS011;38032;53.326;6.472;2023-02-21T01:16:27;13.75;;;5.30;;
52015;SDS011;38032;53.326;6.472;2023-02-21T01:19:12;10.65;;;5.05;;
52015;SDS011;38032;53.326;6.472;2023-02-21T01:21:57;12.50;;;5.85;;
52015;SDS011;38032;53.326;6.472;2023-02-21T01:24:41;15.05;;;5.68;;
52015;SDS011;38032;53.326;6.472;2023-02-21T01:27:26;18.75;;;5.80;;
52015;SDS011;38032;53.326;6.472;2023-02-21T01:30:10;11.80;;;5.78;;
52015;SDS011;38032;53.326;6.472;2023-02-21T01:32:55;13.20;;;6.15;;
52015;SDS011;38032;53.326;6.472;2023-02-21T01:35:39;13.10;;;5.82;;
52015;SDS011;38032;53.326;6.472;2023-02-21T01:38:23;15.23;;;6.07;;
52015;SDS011;38032;53.326;6.472;2023-02-21T01:41:08;15.70;;;6.10;;
52015;SDS011;38032;53.326;6.472;2023-02-21T01:43:59;13.05;;;6.00;;
52015;SDS011;38032;53.326;6.472;2023-02-21T01:46:50;17.98;;;6.53;;
52015;SDS011;38032;53.326;6.472;2023-02-21T01:49:35;14.90;;;6.30;;
52015;SDS011;38032;53.326;6.472;2023-02-21T01:52:22;17.33;;;5.97;;
52015;SDS011;38032;53.326;6.472;2023-02-21T01:55:08;14.38;;;5.15;;
52015;SDS011;38032;53.326;6.472;2023-02-21T01:57:55;14.35;;;5.47;;
52015;SDS011;38032;53.326;6.472;2023-02-21T02:00:40;17.40;;;5.85;;
52015;SDS011;38032;53.326;6.472;2023-02-21T02:03:24;12.77;;;5.32;;
52015;SDS011;38032;53.326;6.472;2023-02-21T02:06:11;13.90;;;5.85;;
52015;SDS011;38032;53.326;6.472;2023-02-21T02:09:05;13.93;;;5.07;;
52015;SDS011;38032;53.326;6.472;2023-02-21T02:12:39;13.70;;;4.90;;
52015;SDS011;38032;53.326;6.472;2023-02-21T02:15:26;15.30;;;5.75;;
52015;SDS011;38032;53.326;6.472;2023-02-21T02:26:37;13.80;;;5.43;;
52015;SDS011;38032;53.326;6.472;2023-02-21T02:34:42;15.63;;;6.10;;
52015;SDS011;38032;53.326;6.472;2023-02-21T02:37:22;18.77;;;6.93;;
52015;SDS011;38032;53.326;6.472;2023-02-21T02:45:10;11.90;;;6.13;;
52015;SDS011;38032;53.326;6.472;2023-02-21T02:47:51;13.02;;;6.68;;
52015;SDS011;38032;53.326;6.472;2023-02-21T02:50:23;14.80;;;5.85;;
52015;SDS011;38032;53.326;6.472;2023-02-21T02:52:52;14.10;;;7.22;;
52015;SDS011;38032;53.326;6.472;2023-02-21T02:55:21;14.40;;;5.90;;
52015;SDS011;38032;53.326;6.472;2023-02-21T02:57:54;13.75;;;6.65;;
52015;SDS011;38032;53.326;6.472;2023-02-21T03:00:21;14.60;;;6.55;;
52015;SDS011;38032;53.326;6.472;2023-02-21T03:02:49;15.20;;;7.22;;
52015;SDS011;38032;53.326;6.472;2023-02-21T03:08:30;12.32;;;6.38;;
52015;SDS011;38032;53.326;6.472;2023-02-21T03:11:14;16.95;;;7.10;;
52015;SDS011;38032;53.326;6.472;2023-02-21T03:18:47;14.02;;;6.43;;
52015;SDS011;38032;53.326;6.472;2023-02-21T03:21:17;19.38;;;6.40;;
52015;SDS011;38032;53.326;6.472;2023-02-21T03:23:47;9.65;;;6.35;;
52015;SDS011;38032;53.326;6.472;2023-02-21T03:26:17;14.98;;;6.47;;
52015;SDS011;38032;53.326;6.472;2023-02-21T03:28:43;14.20;;;6.55;;
52015;SDS011;38032;53.326;6.472;2023-02-21T03:31:11;14.65;;;6.90;;
52015;SDS011;38032;53.326;6.472;2023-02-21T03:33:38;12.02;;;5.93;;
52015;SDS011;38032;53.326;6.472;2023-02-21T03:36:05;15.82;;;6.38;;
52015;SDS011;38032;53.326;6.472;2023-02-21T03:38:33;13.48;;;6.00;;
52015;SDS011;38032;53.326;6.472;2023-02-21T03:40:59;14.43;;;5.78;;
52015;SDS011;38032;53.326;6.472;2023-02-21T03:43:25;12.65;;;5.25;;
52015;SDS011;38032;53.326;6.472;2023-02-21T03:45:51;13.23;;;5.97;;
52015;SDS011;38032;53.326;6.472;2023-02-21T03:48:17;15.70;;;5.63;;
52015;SDS011;38032;53.326;6.472;2023-02-21T03:50:43;9.98;;;5.47;;
52015;SDS011;38032;53.326;6.472;2023-02-21T03:53:09;17.33;;;5.93;;
52015;SDS011;38032;53.326;6.472;2023-02-21T03:55:35;13.90;;;5.38;;
52015;SDS011;38032;53.326;6.472;2023-02-21T03:58:01;18.48;;;6.00;;
52015;SDS011;38032;53.326;6.472;2023-02-21T04:00:27;12.60;;;5.32;;
52015;SDS011;38032;53.326;6.472;2023-02-21T04:02:53;11.88;;;4.72;;
52015;SDS011;38032;53.326;6.472;2023-02-21T04:05:19;12.85;;;5.50;;
52015;SDS011;38032;53.326;6.472;2023-02-21T04:07:45;17.13;;;5.13;;
52015;SDS011;38032;53.326;6.472;2023-02-21T04:10:11;15.82;;;5.60;;
52015;SDS011;38032;53.326;6.472;2023-02-21T04:12:37;12.00;;;5.20;;
52015;SDS011;38032;53.326;6.472;2023-02-21T04:15:03;18.02;;;6.15;;
52015;SDS011;38032;53.326;6.472;2023-02-21T04:17:29;15.88;;;6.32;;
52015;SDS011;38032;53.326;6.472;2023-02-21T04:19:55;14.75;;;6.60;;
52015;SDS011;38032;53.326;6.472;2023-02-21T04:22:21;18.55;;;6.38;;
52015;SDS011;38032;53.326;6.472;2023-02-21T04:24:47;18.20;;;6.82;;
52015;SDS011;38032;53.326;6.472;2023-02-21T04:27:13;18.80;;;7.35;;
52015;SDS011;38032;53.326;6.472;2023-02-21T04:29:39;17.23;;;7.50;;
52015;SDS011;38032;53.326;6.472;2023-02-21T04:32:05;17.65;;;7.43;;
52015;SDS011;38032;53.326;6.472;2023-02-21T04:34:31;18.60;;;7.90;;
52015;SDS011;38032;53.326;6.472;2023-02-21T04:36:57;15.40;;;7.78;;
52015;SDS011;38032;53.326;6.472;2023-02-21T04:39:23;19.02;;;8.13;;
52015;SDS011;38032;53.326;6.472;2023-02-21T04:41:48;18.10;;;7.75;;
52015;SDS011;38032;53.326;6.472;2023-02-21T04:44:14;19.27;;;8.75;;
52015;SDS011;38032;53.326;6.472;2023-02-21T04:46:42;17.95;;;8.77;;
52015;SDS011;38032;53.326;6.472;2023-02-21T04:49:09;22.13;;;8.45;;
52015;SDS011;38032;53.326;6.472;2023-02-21T04:51:36;22.33;;;9.35;;
52015;SDS011;38032;53.326;6.472;2023-02-21T04:54:02;20.13;;;10.07;;
52015;SDS011;38032;53.326;6.472;2023-02-21T04:56:28;22.52;;;10.00;;
52015;SDS011;38032;53.326;6.472;2023-02-21T04:58:55;19.70;;;10.20;;
52015;SDS011;38032;53.326;6.472;2023-02-21T05:01:21;21.02;;;10.05;;
52015;SDS011;38032;53.326;6.472;2023-02-21T05:03:50;22.40;;;10.10;;
52015;SDS011;38032;53.326;6.472;2023-02-21T05:06:17;23.05;;;9.52;;
52015;SDS011;38032;53.326;6.472;2023-02-21T05:08:45;18.90;;;10.27;;
52015;SDS011;38032;53.326;6.472;2023-02-21T05:11:11;21.52;;;10.43;;
52015;SDS011;38032;53.326;6.472;2023-02-21T05:13:37;21.80;;;11.05;;
52015;SDS011;38032;53.326;6.472;2023-02-21T05:16:03;21.40;;;10.02;;
52015;SDS011;38032;53.326;6.472;2023-02-21T05:18:29;20.92;;;9.93;;
52015;SDS011;38032;53.326;6.472;2023-02-21T05:20:55;22.35;;;10.93;;
52015;SDS011;38032;53.326;6.472;2023-02-21T05:23:21;23.25;;;10.95;;
52015;SDS011;38032;53.326;6.472;2023-02-21T05:25:58;24.45;;;10.95;;
52015;SDS011;38032;53.326;6.472;2023-02-21T05:28:26;22.38;;;11.02;;
52015;SDS011;38032;53.326;6.472;2023-02-21T05:30:52;20.50;;;10.65;;
52015;SDS011;38032;53.326;6.472;2023-02-21T05:33:18;18.08;;;10.38;;
52015;SDS011;38032;53.326;6.472;2023-02-21T05:35:45;22.23;;;10.93;;
52015;SDS011;38032;53.326;6.472;2023-02-21T05:38:12;19.58;;;11.63;;
52015;SDS011;38032;53.326;6.472;2023-02-21T05:40:38;25.42;;;11.95;;
52015;SDS011;38032;53.326;6.472;2023-02-21T05:43:04;25.38;;;11.35;;
52015;SDS011;38032;53.326;6.472;2023-02-21T05:45:30;24.85;;;12.00;;
52015;SDS011;38032;53.326;6.472;2023-02-21T05:47:56;21.85;;;11.60;;
52015;SDS011;38032;53.326;6.472;2023-02-21T05:50:25;18.40;;;11.13;;
52015;SDS011;38032;53.326;6.472;2023-02-21T05:52:51;20.27;;;11.00;;
52015;SDS011;38032;53.326;6.472;2023-02-21T05:55:17;21.08;;;10.88;;
52015;SDS011;38032;53.326;6.472;2023-02-21T05:57:43;24.00;;;11.13;;
52015;SDS011;38032;53.326;6.472;2023-02-21T06:00:14;19.92;;;11.35;;
52015;SDS011;38032;53.326;6.472;2023-02-21T06:02:52;20.75;;;11.60;;
52015;SDS011;38032;53.326;6.472;2023-02-21T06:05:18;26.13;;;12.30;;
52015;SDS011;38032;53.326;6.472;2023-02-21T06:07:45;22.73;;;10.93;;
52015;SDS011;38032;53.326;6.472;2023-02-21T06:10:12;22.52;;;10.82;;
52015;SDS011;38032;53.326;6.472;2023-02-21T06:12:38;17.52;;;10.63;;
52015;SDS011;38032;53.326;6.472;2023-02-21T06:15:04;21.42;;;11.25;;
52015;SDS011;38032;53.326;6.472;2023-02-21T06:17:32;24.38;;;11.90;;
52015;SDS011;38032;53.326;6.472;2023-02-21T06:19:58;23.48;;;11.00;;
52015;SDS011;38032;53.326;6.472;2023-02-21T06:22:24;24.42;;;11.82;;
52015;SDS011;38032;53.326;6.472;2023-02-21T06:24:50;20.20;;;11.07;;
52015;SDS011;38032;53.326;6.472;2023-02-21T06:27:16;21.80;;;10.93;;
52015;SDS011;38032;53.326;6.472;2023-02-21T06:29:41;23.73;;;11.82;;
52015;SDS011;38032;53.326;6.472;2023-02-21T06:32:07;18.85;;;10.90;;
52015;SDS011;38032;53.326;6.472;2023-02-21T06:34:34;21.80;;;10.57;;
52015;SDS011;38032;53.326;6.472;2023-02-21T06:37:00;23.33;;;10.88;;
52015;SDS011;38032;53.326;6.472;2023-02-21T06:39:26;22.67;;;11.52;;
52015;SDS011;38032;53.326;6.472;2023-02-21T06:41:51;20.38;;;11.35;;
52015;SDS011;38032;53.326;6.472;2023-02-21T06:44:18;26.15;;;11.20;;
52015;SDS011;38032;53.326;6.472;2023-02-21T06:46:44;22.10;;;11.55;;
52015;SDS011;38032;53.326;6.472;2023-02-21T06:49:10;22.90;;;11.50;;
52015;SDS011;38032;53.326;6.472;2023-02-21T06:51:37;22.77;;;11.07;;
52015;SDS011;38032;53.326;6.472;2023-02-21T06:54:05;23.30;;;11.90;;
52015;SDS011;38032;53.326;6.472;2023-02-21T06:56:32;22.15;;;11.88;;
52015;SDS011;38032;53.326;6.472;2023-02-21T06:58:58;23.05;;;12.07;;
52015;SDS011;38032;53.326;6.472;2023-02-21T07:01:24;24.70;;;12.52;;
52015;SDS011;38032;53.326;6.472;2023-02-21T07:03:52;20.48;;;10.93;;
52015;SDS011;38032;53.326;6.472;2023-02-21T07:06:18;24.35;;;12.60;;
52015;SDS011;38032;53.326;6.472;2023-02-21T07:08:45;23.77;;;12.43;;
52015;SDS011;38032;53.326;6.472;2023-02-21T07:11:12;20.90;;;11.95;;
52015;SDS011;38032;53.326;6.472;2023-02-21T07:13:39;25.25;;;12.57;;
52015;SDS011;38032;53.326;6.472;2023-02-21T07:16:05;24.83;;;13.68;;
52015;SDS011;38032;53.326;6.472;2023-02-21T07:18:32;23.38;;;12.68;;
52015;SDS011;38032;53.326;6.472;2023-02-21T07:20:58;23.20;;;12.88;;
52015;SDS011;38032;53.326;6.472;2023-02-21T07:23:24;23.98;;;12.20;;
52015;SDS011;38032;53.326;6.472;2023-02-21T07:25:50;24.48;;;14.13;;
52015;SDS011;38032;53.326;6.472;2023-02-21T07:28:16;28.42;;;14.13;;
52015;SDS011;38032;53.326;6.472;2023-02-21T07:30:42;29.02;;;14.13;;
52015;SDS011;38032;53.326;6.472;2023-02-21T07:33:08;28.48;;;14.70;;
52015;SDS011;38032;53.326;6.472;2023-02-21T07:35:34;26.73;;;13.48;;
52015;SDS011;38032;53.326;6.472;2023-02-21T07:38:00;28.05;;;13.85;;
52015;SDS011;38032;53.326;6.472;2023-02-21T07:40:25;25.58;;;14.38;;
52015;SDS011;38032;53.326;6.472;2023-02-21T07:42:51;28.38;;;14.05;;
52015;SDS011;38032;53.326;6.472;2023-02-21T07:45:17;25.55;;;13.63;;
52015;SDS011;38032;53.326;6.472;2023-02-21T07:47:44;27.92;;;14.65;;
52015;SDS011;38032;53.326;6.472;2023-02-21T07:50:10;25.60;;;13.98;;
52015;SDS011;38032;53.326;6.472;2023-02-21T07:52:36;26.38;;;13.95;;
52015;SDS011;38032;53.326;6.472;2023-02-21T07:55:03;27.35;;;14.30;;
52015;SDS011;38032;53.326;6.472;2023-02-21T07:57:29;29.27;;;13.98;;
52015;SDS011;38032;53.326;6.472;2023-02-21T07:59:55;30.35;;;14.55;;
52015;SDS011;38032;53.326;6.472;2023-02-21T08:02:20;30.88;;;13.57;;
52015;SDS011;38032;53.326;6.472;2023-02-21T08:04:50;24.92;;;13.02;;
52015;SDS011;38032;53.326;6.472;2023-02-21T08:07:17;21.95;;;12.32;;
52015;SDS011;38032;53.326;6.472;2023-02-21T08:09:43;26.35;;;13.30;;
52015;SDS011;38032;53.326;6.472;2023-02-21T08:12:08;23.20;;;13.00;;
52015;SDS011;38032;53.326;6.472;2023-02-21T08:14:34;28.13;;;13.98;;
52015;SDS011;38032;53.326;6.472;2023-02-21T08:17:00;22.25;;;13.23;;
52015;SDS011;38032;53.326;6.472;2023-02-21T08:19:26;26.05;;;14.57;;
52015;SDS011;38032;53.326;6.472;2023-02-21T08:21:52;26.88;;;13.52;;
52015;SDS011;38032;53.326;6.472;2023-02-21T08:24:18;24.55;;;13.57;;
52015;SDS011;38032;53.326;6.472;2023-02-21T08:26:44;21.50;;;12.93;;
52015;SDS011;38032;53.326;6.472;2023-02-21T08:29:11;25.58;;;13.00;;
52015;SDS011;38032;53.326;6.472;2023-02-21T08:31:38;26.17;;;13.15;;
52015;SDS011;38032;53.326;6.472;2023-02-21T08:34:05;25.73;;;14.30;;
52015;SDS011;38032;53.326;6.472;2023-02-21T08:36:32;22.05;;;11.95;;
52015;SDS011;38032;53.326;6.472;2023-02-21T08:39:00;24.95;;;13.75;;
52015;SDS011;38032;53.326;6.472;2023-02-21T08:41:36;22.08;;;12.85;;
52015;SDS011;38032;53.326;6.472;2023-02-21T08:44:06;23.13;;;13.90;;
52015;SDS011;38032;53.326;6.472;2023-02-21T08:46:33;20.50;;;12.27;;
52015;SDS011;38032;53.326;6.472;2023-02-21T08:49:00;26.85;;;13.60;;
52015;SDS011;38032;53.326;6.472;2023-02-21T08:51:27;23.85;;;12.77;;
52015;SDS011;38032;53.326;6.472;2023-02-21T08:53:54;23.08;;;13.32;;
52015;SDS011;38032;53.326;6.472;2023-02-21T08:56:20;24.77;;;12.02;;
52015;SDS011;38032;53.326;6.472;2023-02-21T08:58:47;24.40;;;13.40;;
52015;SDS011;38032;53.326;6.472;2023-02-21T09:01:13;24.27;;;12.75;;
52015;SDS011;38032;53.326;6.472;2023-02-21T09:03:40;22.15;;;12.88;;
52015;SDS011;38032;53.326;6.472;2023-02-21T09:06:06;25.20;;;12.63;;
52015;SDS011;38032;53.326;6.472;2023-02-21T09:08:33;25.90;;;13.55;;
52015;SDS011;38032;53.326;6.472;2023-02-21T09:11:01;20.08;;;12.35;;
52015;SDS011;38032;53.326;6.472;2023-02-21T09:13:28;22.75;;;13.13;;
52015;SDS011;38032;53.326;6.472;2023-02-21T09:15:55;20.63;;;11.93;;
52015;SDS011;38032;53.326;6.472;2023-02-21T09:18:21;19.55;;;12.40;;
52015;SDS011;38032;53.326;6.472;2023-02-21T09:20:47;20.58;;;12.20;;
52015;SDS011;38032;53.326;6.472;2023-02-21T09:23:16;18.83;;;10.52;;
52015;SDS011;38032;53.326;6.472;2023-02-21T09:25:44;20.88;;;11.77;;
52015;SDS011;38032;53.326;6.472;2023-02-21T09:28:12;17.02;;;11.43;;
52015;SDS011;38032;53.326;6.472;2023-02-21T09:30:39;19.08;;;12.20;;
52015;SDS011;38032;53.326;6.472;2023-02-21T09:33:05;19.95;;;12.02;;
52015;SDS011;38032;53.326;6.472;2023-02-21T09:35:31;21.10;;;10.82;;
52015;SDS011;38032;53.326;6.472;2023-02-21T09:37:58;19.85;;;12.02;;
52015;SDS011;38032;53.326;6.472;2023-02-21T09:43:04;19.10;;;10.68;;
52015;SDS011;38032;53.326;6.472;2023-02-21T09:45:33;19.50;;;10.73;;
52015;SDS011;38032;53.326;6.472;2023-02-21T09:48:03;19.75;;;11.18;;
52015;SDS011;38032;53.326;6.472;2023-02-21T09:50:36;17.95;;;10.77;;
52015;SDS011;38032;53.326;6.472;2023-02-21T09:53:06;18.95;;;10.88;;
52015;SDS011;38032;53.326;6.472;2023-02-21T09:55:34;18.80;;;11.02;;
52015;SDS011;38032;53.326;6.472;2023-02-21T09:58:05;19.23;;;11.77;;
52015;SDS011;38032;53.326;6.472;2023-02-21T10:00:37;20.55;;;12.30;;
52015;SDS011;38032;53.326;6.472;2023-02-21T10:03:09;17.13;;;10.30;;
52015;SDS011;38032;53.326;6.472;2023-02-21T10:05:41;17.20;;;11.07;;
52015;SDS011;38032;53.326;6.472;2023-02-21T10:08:10;18.20;;;11.18;;
52015;SDS011;38032;53.326;6.472;2023-02-21T10:10:47;18.00;;;10.77;;
52015;SDS011;38032;53.326;6.472;2023-02-21T10:16:11;18.50;;;12.02;;
52015;SDS011;38032;53.326;6.472;2023-02-21T10:21:29;19.08;;;11.65;;
52015;SDS011;38032;53.326;6.472;2023-02-21T10:24:01;19.20;;;11.52;;
52015;SDS011;38032;53.326;6.472;2023-02-21T10:26:32;18.33;;;11.35;;
52015;SDS011;38032;53.326;6.472;2023-02-21T10:29:02;20.50;;;11.15;;
52015;SDS011;38032;53.326;6.472;2023-02-21T10:31:38;19.33;;;12.40;;
52015;SDS011;38032;53.326;6.472;2023-02-21T10:34:08;19.65;;;11.77;;
52015;SDS011;38032;53.326;6.472;2023-02-21T10:36:47;19.05;;;11.77;;
52015;SDS011;38032;53.326;6.472;2023-02-21T10:39:16;20.80;;;11.73;;
52015;SDS011;38032;53.326;6.472;2023-02-21T10:41:45;23.02;;;10.75;;
52015;SDS011;38032;53.326;6.472;2023-02-21T10:44:17;18.23;;;10.77;;
52015;SDS011;38032;53.326;6.472;2023-02-21T10:46:49;16.85;;;10.95;;
52015;SDS011;38032;53.326;6.472;2023-02-21T10:49:24;18.13;;;10.40;;
52015;SDS011;38032;53.326;6.472;2023-02-21T10:52:01;15.65;;;10.68;;
52015;SDS011;38032;53.326;6.472;2023-02-21T10:54:34;18.15;;;10.68;;
52015;SDS011;38032;53.326;6.472;2023-02-21T10:57:01;16.42;;;10.23;;
52015;SDS011;38032;53.326;6.472;2023-02-21T10:59:31;15.25;;;10.38;;
52015;SDS011;38032;53.326;6.472;2023-02-21T11:02:00;17.67;;;9.95;;
52015;SDS011;38032;53.326;6.472;2023-02-21T11:04:29;14.75;;;9.57;;
52015;SDS011;38032;53.326;6.472;2023-02-21T11:07:01;18.63;;;10.15;;
52015;SDS011;38032;53.326;6.472;2023-02-21T11:09:33;16.83;;;9.00;;
52015;SDS011;38032;53.326;6.472;2023-02-21T11:12:03;13.93;;;9.32;;
52015;SDS011;38032;53.326;6.472;2023-02-21T11:14:43;17.20;;;9.70;;
52015;SDS011;38032;53.326;6.472;2023-02-21T11:19:41;19.58;;;10.23;;
52015;SDS011;38032;53.326;6.472;2023-02-21T11:22:09;17.58;;;9.77;;
52015;SDS011;38032;53.326;6.472;2023-02-21T11:24:51;22.75;;;11.02;;
52015;SDS011;38032;53.326;6.472;2023-02-21T11:27:22;16.15;;;9.98;;
52015;SDS011;38032;53.326;6.472;2023-02-21T11:29:49;18.02;;;10.57;;
52015;SDS011;38032;53.326;6.472;2023-02-21T11:32:20;18.52;;;9.50;;
52015;SDS011;38032;53.326;6.472;2023-02-21T11:34:58;14.77;;;8.95;;
52015;SDS011;38032;53.326;6.472;2023-02-21T11:37:26;16.05;;;10.70;;
52015;SDS011;38032;53.326;6.472;2023-02-21T11:39:53;19.20;;;10.88;;
52015;SDS011;38032;53.326;6.472;2023-02-21T11:42:30;15.73;;;10.23;;
52015;SDS011;38032;53.326;6.472;2023-02-21T11:47:58;15.35;;;8.80;;
52015;SDS011;38032;53.326;6.472;2023-02-21T11:50:29;15.02;;;9.02;;
52015;SDS011;38032;53.326;6.472;2023-02-21T11:53:06;16.23;;;8.65;;
52015;SDS011;38032;53.326;6.472;2023-02-21T11:55:56;18.52;;;9.18;;
52015;SDS011;38032;53.326;6.472;2023-02-21T11:58:43;20.02;;;9.88;;
52015;SDS011;38032;53.326;6.472;2023-02-21T12:01:23;17.42;;;9.75;;
52015;SDS011;38032;53.326;6.472;2023-02-21T12:09:35;17.58;;;9.32;;
52015;SDS011;38032;53.326;6.472;2023-02-21T12:12:07;17.63;;;9.30;;
52015;SDS011;38032;53.326;6.472;2023-02-21T12:14:59;14.88;;;9.38;;
52015;SDS011;38032;53.326;6.472;2023-02-21T12:20:21;15.82;;;9.75;;
52015;SDS011;38032;53.326;6.472;2023-02-21T12:23:02;18.25;;;9.35;;
52015;SDS011;38032;53.326;6.472;2023-02-21T12:25:31;17.15;;;9.27;;
52015;SDS011;38032;53.326;6.472;2023-02-21T12:30:57;15.98;;;8.95;;
52015;SDS011;38032;53.326;6.472;2023-02-21T12:36:09;15.38;;;9.32;;
52015;SDS011;38032;53.326;6.472;2023-02-21T12:39:02;14.52;;;8.60;;
52015;SDS011;38032;53.326;6.472;2023-02-21T12:44:20;13.18;;;8.38;;
52015;SDS011;38032;53.326;6.472;2023-02-21T12:47:02;16.42;;;8.95;;
52015;SDS011;38032;53.326;6.472;2023-02-21T12:49:52;16.95;;;8.43;;
52015;SDS011;38032;53.326;6.472;2023-02-21T12:52:27;15.45;;;7.88;;
52015;SDS011;38032;53.326;6.472;2023-02-21T13:00:20;12.75;;;7.75;;
52015;SDS011;38032;53.326;6.472;2023-02-21T13:03:00;12.82;;;7.22;;
52015;SDS011;38032;53.326;6.472;2023-02-21T13:05:37;12.73;;;7.38;;
52015;SDS011;38032;53.326;6.472;2023-02-21T13:08:14;14.07;;;8.15;;
52015;SDS011;38032;53.326;6.472;2023-02-21T13:13:24;14.25;;;8.20;;
52015;SDS011;38032;53.326;6.472;2023-02-21T13:15:53;12.18;;;8.05;;
52015;SDS011;38032;53.326;6.472;2023-02-21T13:18:23;12.88;;;8.60;;
52015;SDS011;38032;53.326;6.472;2023-02-21T13:20:59;14.27;;;8.40;;
52015;SDS011;38032;53.326;6.472;2023-02-21T13:26:56;13.50;;;8.80;;
52015;SDS011;38032;53.326;6.472;2023-02-21T13:29:26;12.75;;;8.00;;
52015;SDS011;38032;53.326;6.472;2023-02-21T13:31:57;14.35;;;8.40;;
52015;SDS011;38032;53.326;6.472;2023-02-21T13:34:27;14.73;;;8.45;;
52015;SDS011;38032;53.326;6.472;2023-02-21T13:37:00;15.88;;;8.13;;
52015;SDS011;38032;53.326;6.472;2023-02-21T13:39:30;12.75;;;7.53;;
52015;SDS011;38032;53.326;6.472;2023-02-21T13:42:03;13.85;;;8.32;;
52015;SDS011;38032;53.326;6.472;2023-02-21T13:44:36;11.07;;;7.40;;
52015;SDS011;38032;53.326;6.472;2023-02-21T13:47:09;10.18;;;6.95;;
52015;SDS011;38032;53.326;6.472;2023-02-21T13:49:43;12.20;;;6.95;;
52015;SDS011;38032;53.326;6.472;2023-02-21T13:57:40;12.02;;;6.82;;
52015;SDS011;38032;53.326;6.472;2023-02-21T14:08:13;11.07;;;7.30;;
52015;SDS011;38032;53.326;6.472;2023-02-21T14:10:45;11.15;;;7.72;;
52015;SDS011;38032;53.326;6.472;2023-02-21T14:13:18;13.18;;;8.05;;
52015;SDS011;38032;53.326;6.472;2023-02-21T14:15:49;12.68;;;8.73;;
52015;SDS011;38032;53.326;6.472;2023-02-21T14:18:24;13.20;;;8.90;;
52015;SDS011;38032;53.326;6.472;2023-02-21T14:20:55;14.25;;;9.65;;
52015;SDS011;38032;53.326;6.472;2023-02-21T14:23:30;12.70;;;9.10;;
52015;SDS011;38032;53.326;6.472;2023-02-21T14:26:02;13.50;;;9.02;;
52015;SDS011;38032;53.326;6.472;2023-02-21T14:34:12;12.15;;;8.60;;
52015;SDS011;38032;53.326;6.472;2023-02-21T14:36:41;12.18;;;8.43;;
52015;SDS011;38032;53.326;6.472;2023-02-21T14:39:09;13.93;;;9.43;;
52015;SDS011;38032;53.326;6.472;2023-02-21T14:41:38;14.30;;;9.55;;
52015;SDS011;38032;53.326;6.472;2023-02-21T14:55:07;15.57;;;10.40;;
52015;SDS011;38032;53.326;6.472;2023-02-21T14:58:10;18.02;;;10.60;;
52015;SDS011;38032;53.326;6.472;2023-02-21T15:03:34;14.68;;;10.18;;
52015;SDS011;38032;53.326;6.472;2023-02-21T15:06:10;17.45;;;10.15;;
52015;SDS011;38032;53.326;6.472;2023-02-21T15:08:43;14.48;;;9.65;;
52015;SDS011;38032;53.326;6.472;2023-02-21T15:11:29;13.02;;;10.18;;
52015;SDS011;38032;53.326;6.472;2023-02-21T15:14:11;14.38;;;10.10;;
52015;SDS011;38032;53.326;6.472;2023-02-21T15:16:51;17.42;;;11.13;;
52015;SDS011;38032;53.326;6.472;2023-02-21T15:19:23;13.95;;;10.45;;
52015;SDS011;38032;53.326;6.472;2023-02-21T15:22:06;15.82;;;11.13;;
52015;SDS011;38032;53.326;6.472;2023-02-21T15:24:38;17.20;;;11.18;;
52015;SDS011;38032;53.326;6.472;2023-02-21T15:27:08;16.85;;;11.43;;
52015;SDS011;38032;53.326;6.472;2023-02-21T15:29:35;14.82;;;9.88;;
52015;SDS011;38032;53.326;6.472;2023-02-21T15:32:01;17.13;;;11.13;;
52015;SDS011;38032;53.326;6.472;2023-02-21T15:39:41;18.40;;;12.23;;
52015;SDS011;38032;53.326;6.472;2023-02-21T15:42:10;20.38;;;11.90;;
52015;SDS011;38032;53.326;6.472;2023-02-21T15:44:40;14.85;;;11.30;;
52015;SDS011;38032;53.326;6.472;2023-02-21T15:47:12;14.27;;;11.27;;
52015;SDS011;38032;53.326;6.472;2023-02-21T15:52:25;18.13;;;13.93;;
52015;SDS011;38032;53.326;6.472;2023-02-21T15:55:13;18.60;;;13.93;;
52015;SDS011;38032;53.326;6.472;2023-02-21T15:57:59;19.67;;;13.82;;
52015;SDS011;38032;53.326;6.472;2023-02-21T16:00:27;20.10;;;14.20;;
52015;SDS011;38032;53.326;6.472;2023-02-21T16:06:06;20.40;;;14.57;;
52015;SDS011;38032;53.326;6.472;2023-02-21T16:08:54;19.20;;;13.50;;
52015;SDS011;38032;53.326;6.472;2023-02-21T16:11:45;19.92;;;14.43;;
52015;SDS011;38032;53.326;6.472;2023-02-21T16:16:57;20.65;;;14.30;;
52015;SDS011;38032;53.326;6.472;2023-02-21T16:19:33;19.90;;;14.60;;
52015;SDS011;38032;53.326;6.472;2023-02-21T16:24:38;18.48;;;14.10;;
52015;SDS011;38032;53.326;6.472;2023-02-21T16:27:09;17.33;;;13.68;;
52015;SDS011;38032;53.326;6.472;2023-02-21T16:29:37;18.80;;;14.35;;
52015;SDS011;38032;53.326;6.472;2023-02-21T16:32:04;17.63;;;13.07;;
52015;SDS011;38032;53.326;6.472;2023-02-21T16:34:31;17.70;;;13.65;;
52015;SDS011;38032;53.326;6.472;2023-02-21T16:37:00;23.40;;;14.23;;
52015;SDS011;38032;53.326;6.472;2023-02-21T16:39:28;19.65;;;14.32;;
52015;SDS011;38032;53.326;6.472;2023-02-21T16:41:55;20.23;;;13.90;;
52015;SDS011;38032;53.326;6.472;2023-02-21T16:44:21;21.42;;;13.80;;
52015;SDS011;38032;53.326;6.472;2023-02-21T16:46:47;24.40;;;14.30;;
52015;SDS011;38032;53.326;6.472;2023-02-21T16:49:15;21.23;;;14.40;;
52015;SDS011;38032;53.326;6.472;2023-02-21T16:51:41;19.70;;;13.90;;
52015;SDS011;38032;53.326;6.472;2023-02-21T16:54:09;18.90;;;13.65;;
52015;SDS011;38032;53.326;6.472;2023-02-21T16:56:37;21.02;;;14.52;;
52015;SDS011;38032;53.326;6.472;2023-02-21T16:59:07;21.27;;;15.23;;